Date,TemperatureHighF,TemperatureAvgF,TemperatureLowF,DewpointHighF,DewpointAvgF,DewpointLowF,HumidityHigh,HumidityAvg,HumidityLow,PressureMaxIn,PressureMinIn,WindSpeedMaxMPH,WindSpeedAvgMPH,GustSpeedMaxMPH,PrecipitationSumIn
2013-1-1,19,14,9,11,7,3,75,72,69,0.00,40.00,9,6,15,0.00
2013-1-3,32,23,10,28,15,6,86,72,57,0.00,40.00,12,5,20,0.00
2013-1-4,40,24,7,24,17,5,93,79,48,0.00,40.00,9,4,17,0.00
2013-1-5,39,30,17,35,27,16,96,88,71,0.00,40.00,12,6,24,0.00
2013-1-6,34,25,16,22,16,13,93,71,42,0.00,40.00,12,5,22,0.00
2013-1-7,43,30,16,27,22,14,94,74,47,0.00,40.00,12,5,21,0.00
2013-1-8,47,38,30,33,28,25,82,69,50,0.00,40.00,12,6,21,0.00
2013-1-9,52,38,26,33,30,25,96,75,40,0.00,40.00,8,2,14,0.00
2013-1-10,44,35,25,40,31,22,97,87,42,0.00,40.00,9,3,17,0.28
2013-1-11,56,49,41,51,45,40,96,85,65,0.00,40.00,12,6,21,0.00
2013-1-12,55,35,22,44,25,16,88,67,48,0.00,40.00,12,7,22,0.14
2013-1-13,22,19,15,18,11,7,84,71,67,0.00,40.00,13,7,19,0.00
2013-1-15,32,22,12,11,8,6,88,58,36,0.00,40.00,8,2,12,0.00
2013-1-16,44,29,10,33,19,8,92,69,45,0.00,40.00,13,5,21,0.00
2013-1-17,39,29,20,33,18,11,92,67,37,0.00,40.00,11,5,18,0.00
2013-1-18,53,38,19,31,27,18,94,66,42,0.00,40.00,19,9,32,0.00
2013-1-19,57,44,28,35,30,14,80,60,35,0.00,40.00,19,7,32,0.00
2013-1-20,27,17,12,15,8,4,83,69,56,0.00,40.00,15,6,26,0.03
2013-1-22,17,13,5,4,2,-1,79,60,48,0.00,40.00,7,3,15,0.00
2013-1-23,35,21,12,17,10,1,76,61,47,0.00,40.00,17,7,27,0.00
2013-1-24,24,16,7,11,2,-3,64,55,42,0.00,40.00,12,6,20,0.00
2013-1-25,42,29,19,22,15,7,70,57,39,0.00,40.00,12,6,22,0.00
2013-1-26,36,23,9,16,10,4,78,59,40,0.00,40.00,11,4,14,0.00
2013-1-27,43,34,29,41,29,16,96,84,57,0.00,40.00,9,6,19,0.47
2013-1-28,57,47,42,55,46,41,96,95,91,0.00,40.00,11,4,20,0.03
2013-1-29,60,50,35,57,48,34,96,92,86,0.00,40.00,11,7,19,1.34
2013-1-30,35,27,18,34,23,10,96,84,69,0.00,40.00,16,9,29,1.15
2013-1-31,19,9,4,12,0,-6,72,64,59,0.00,40.00,12,9,29,0.00
2013-2-1,25,9,-2,16,-1,-10,70,61,53,0.00,40.00,11,5,19,0.00
2013-2-2,27,23,18,22,14,8,85,68,58,0.00,40.00,14,6,24,0.08
2013-2-3,32,25,20,24,15,11,89,67,47,0.00,40.00,17,6,35,0.00
2013-2-4,31,26,16,23,18,14,89,72,61,0.00,40.00,17,6,24,0.00
2013-2-5,42,30,17,30,24,15,93,78,54,0.00,40.00,12,4,21,0.00
2013-2-6,48,35,20,33,26,19,96,74,45,0.00,40.00,14,4,18,0.00
2013-2-7,40,37,33,39,35,29,95,92,70,0.00,40.00,14,5,24,0.61
2013-2-8,33,31,30,29,26,23,89,79,70,0.00,40.00,12,5,21,0.00
2013-2-9,38,32,29,30,26,25,85,79,65,0.00,40.00,11,6,20,0.00
2013-2-10,57,43,35,49,36,26,96,79,44,0.00,40.00,19,10,37,0.25
2013-2-11,39,34,31,26,22,20,72,60,52,0.00,40.00,16,8,31,0.00
2013-2-12,41,32,29,26,23,22,77,70,53,0.00,40.00,7,4,12,0.00
2013-2-13,49,40,22,31,27,22,96,61,41,0.00,40.00,8,4,17,0.00
2013-2-14,45,38,32,31,28,25,78,67,52,0.00,40.00,13,6,27,0.00
2013-2-15,33,27,21,26,13,8,77,57,35,0.00,40.00,14,7,22,0.00
2013-2-16,33,22,12,16,13,8,89,67,46,0.00,40.00,9,4,16,0.00
2013-2-17,43,30,16,25,19,15,92,66,41,0.00,40.00,12,6,26,0.00
2013-2-18,57,38,22,41,30,11,96,75,51,0.00,40.00,18,9,31,0.49
2013-2-19,27,19,12,13,7,3,68,58,44,0.00,40.00,17,10,30,0.00
2013-2-20,25,15,4,14,5,-3,76,63,45,0.00,40.00,11,4,17,0.00
2013-2-21,28,23,15,26,19,12,96,84,71,0.00,40.00,7,3,18,0.35
2013-2-22,31,28,25,28,23,17,96,79,64,0.00,40.00,11,4,17,0.01
2013-2-23,34,26,17,19,16,12,82,66,50,0.00,40.00,9,4,12,0.00
2013-2-24,46,26,10,24,18,8,92,72,39,0.00,40.00,6,2,9,0.00
2013-2-25,45,33,22,31,26,21,95,77,46,0.00,40.00,7,2,15,0.00
2013-2-26,36,33,32,32,30,29,97,88,75,0.00,40.00,17,11,27,0.57
2013-2-27,34,32,31,31,29,28,94,89,84,0.00,40.00,12,7,19,0.36
2013-2-28,36,32,28,31,27,25,94,83,68,0.00,40.00,12,6,18,0.09
2013-3-1,32,28,26,26,21,15,93,74,53,0.00,40.00,12,7,17,0.08
2013-3-2,35,24,10,19,13,7,90,65,40,0.00,40.00,9,4,14,0.00
2013-3-3,42,24,7,21,13,5,91,67,36,0.00,40.00,6,2,11,0.00
2013-3-4,45,35,28,29,26,17,91,71,50,0.00,40.00,9,4,20,0.08
2013-3-5,36,31,29,30,25,18,96,78,49,0.00,40.00,16,9,26,0.81
2013-3-6,32,27,25,23,20,18,78,72,60,0.00,40.00,12,7,21,0.00
2013-3-7,40,28,20,24,20,17,90,72,44,0.00,40.00,9,2,11,0.00
2013-3-8,49,36,26,33,28,23,93,72,44,0.00,40.00,9,4,17,0.00
2013-3-9,46,40,37,41,37,32,96,91,72,0.00,40.00,11,6,24,1.34
2013-3-10,49,44,38,48,44,36,96,96,96,0.00,40.00,10,3,17,0.98
2013-3-11,38,33,28,37,29,18,96,85,63,0.00,40.00,13,6,21,0.00
2013-3-12,37,30,24,29,21,17,83,70,54,0.00,40.00,14,6,29,0.00
2013-3-13,39,28,21,19,14,10,85,57,33,0.00,40.00,16,6,23,0.00
2013-3-14,55,38,22,31,26,19,92,66,37,0.00,40.00,12,3,21,0.00
2013-3-15,58,41,27,39,33,26,96,78,46,0.00,40.00,6,2,11,0.00
2013-3-16,41,36,31,38,30,23,96,77,62,0.00,40.00,15,8,26,0.00
2013-3-17,42,34,26,27,23,20,78,64,48,0.00,40.00,15,5,21,0.00
2013-3-18,44,34,26,35,25,14,95,74,45,0.00,40.00,17,5,30,0.04
2013-3-19,43,30,20,21,11,8,75,48,24,0.00,40.00,13,7,22,0.00
2013-3-20,30,24,18,20,8,4,71,53,38,0.00,40.00,18,10,28,0.00
2013-3-21,40,24,12,17,10,8,84,57,30,0.00,40.00,7,3,14,0.00
2013-3-22,47,32,19,25,18,14,91,60,29,0.00,40.00,6,2,12,0.00
2013-3-23,49,39,31,29,24,20,83,57,36,0.00,40.00,10,4,21,0.00
2013-3-24,33,31,29,31,29,28,96,94,83,0.00,40.00,16,9,24,0.51
2013-3-25,36,32,29,29,25,21,96,76,58,0.00,40.00,12,7,20,0.00
2013-3-26,42,34,26,23,22,18,85,62,40,0.00,40.00,9,4,18,0.00
2013-3-27,49,34,22,31,23,20,96,69,38,0.00,40.00,7,1,12,0.00
2013-3-28,57,40,24,34,27,23,96,65,32,0.00,40.00,7,2,14,0.00
2013-3-29,66,46,28,38,30,25,96,62,24,0.00,40.00,6,2,12,0.00
2013-3-30,54,45,33,46,39,-100,95,82,58,0.00,40.00,12,5,21,0.01
2013-3-31,60,49,40,47,36,22,96,64,28,0.00,40.00,15,6,30,0.00
2013-4-1,44,35,27,23,18,14,74,51,31,0.00,40.00,14,8,22,0.00
2013-4-2,49,34,20,24,17,8,94,56,23,0.00,40.00,11,4,20,0.00
2013-4-3,55,37,21,24,17,10,95,52,18,0.00,40.00,8,2,14,0.00
2013-4-4,65,44,26,36,25,22,92,55,20,0.00,40.00,8,2,16,0.00
2013-4-5,66,49,31,38,29,22,96,53,21,0.00,40.00,8,3,14,0.00
2013-4-6,68,59,49,47,37,25,68,44,34,0.00,40.00,23,10,34,0.03
2013-4-7,73,56,35,44,40,34,96,59,30,0.00,40.00,7,2,15,0.00
2013-4-8,74,63,53,58,54,42,95,75,47,0.00,40.00,12,4,19,0.51
2013-4-9,79,68,54,60,58,51,89,71,48,0.00,40.00,17,7,24,0.00
2013-4-10,54,45,42,51,43,41,98,95,89,0.00,40.00,21,7,35,2.04
2013-4-11,48,42,37,43,37,27,96,83,65,0.00,40.00,13,5,24,0.11
2013-4-12,45,40,37,34,31,28,83,69,56,0.00,40.00,11,6,22,0.00
2013-4-13,55,44,35,35,27,23,65,52,36,0.00,40.00,10,5,18,0.00
2013-4-14,79,61,46,56,43,35,88,55,28,0.00,40.00,17,7,29,0.05
2013-4-15,61,51,41,52,43,31,95,75,40,0.00,40.00,12,4,18,0.01
2013-4-16,50,44,36,38,34,31,88,67,49,0.00,40.00,12,6,17,0.00
2013-4-17,57,48,42,56,43,36,96,84,66,0.00,40.00,19,5,26,3.24
2013-4-18,61,51,38,60,47,28,96,87,64,0.00,40.00,15,6,31,1.05
2013-4-19,45,39,34,28,25,21,68,57,40,0.00,40.00,14,8,30,0.00
2013-4-20,54,40,28,28,24,20,88,56,27,0.00,40.00,8,3,11,0.00
2013-4-21,66,51,39,42,35,27,67,55,40,0.00,40.00,12,7,24,0.00
2013-4-22,74,66,57,46,40,37,67,40,29,0.00,40.00,13,6,21,0.04
2013-4-23,56,42,37,49,38,32,94,86,69,0.00,40.00,17,9,23,0.34
2013-4-24,55,43,33,32,28,24,82,56,30,0.00,40.00,12,7,19,0.00
2013-4-25,62,49,37,39,32,28,84,56,30,0.00,40.00,12,4,20,0.00
2013-4-26,65,56,45,47,42,35,80,60,42,0.00,40.00,21,8,30,0.00
2013-4-27,62,53,41,50,45,40,96,77,51,0.00,40.00,9,2,18,0.00
2013-4-28,74,60,42,52,46,41,96,66,35,0.00,40.00,9,4,12,0.00
2013-4-29,83,66,51,61,54,49,93,67,43,0.00,40.00,13,6,21,0.00
2013-4-30,87,75,62,60,54,49,79,52,28,0.00,40.00,20,9,29,0.00
2013-5-1,86,68,51,58,52,44,78,59,33,0.00,40.00,16,5,25,0.00
2013-5-2,51,44,37,44,40,36,97,86,77,0.00,40.00,17,10,26,0.54
2013-5-3,45,39,36,44,38,35,97,95,93,0.00,40.00,14,9,21,3.65
2013-5-4,66,54,45,55,51,44,97,89,64,0.00,40.00,12,3,17,0.58
2013-5-5,73,59,49,57,52,47,95,78,41,0.00,40.00,21,4,32,0.03
2013-5-6,77,61,47,58,49,44,95,70,34,0.00,40.00,9,3,16,0.00
2013-5-7,84,64,48,55,48,42,95,64,25,0.00,40.00,7,1,10,0.00
2013-5-8,79,62,49,62,53,47,95,76,33,0.00,40.00,6,1,12,0.01
2013-5-9,72,65,58,64,61,56,95,85,66,0.00,40.00,7,2,14,0.30
2013-5-10,60,54,46,59,48,-100,95,84,74,0.00,40.00,14,6,20,0.00
2013-5-11,59,51,40,49,33,-100,96,57,26,0.00,40.00,17,7,35,0.00
2013-5-12,61,48,35,35,28,23,88,52,25,0.00,40.00,11,4,18,0.00
2013-5-13,74,55,34,43,36,30,96,57,24,0.00,40.00,12,3,18,0.00
2013-5-14,92,74,55,63,55,43,84,55,35,0.00,40.00,14,6,24,0.00
2013-5-15,86,74,62,62,54,49,87,52,31,0.00,40.00,9,3,15,0.00
2013-5-16,87,67,60,63,41,-100,95,70,39,0.00,40.00,8,2,14,0.98
2013-5-17,84,70,58,64,56,-100,94,71,45,0.00,40.00,7,2,13,0.00
2013-5-18,88,73,62,70,63,60,95,75,45,0.00,40.00,7,2,15,0.00
2013-5-19,83,72,64,73,66,59,93,81,64,0.00,40.00,10,4,23,0.06
2013-5-20,82,70,62,64,61,58,95,75,47,0.00,40.00,12,6,24,0.14
2013-5-21,78,68,61,62,58,54,95,73,45,0.00,40.00,9,5,17,0.00
2013-5-22,66,62,57,60,55,52,94,77,64,0.00,40.00,11,3,16,0.00
2013-5-23,72,60,51,56,51,43,96,74,37,0.00,40.00,17,6,25,0.10
2013-5-24,75,58,45,51,44,38,96,66,30,0.00,40.00,6,1,12,0.00
2013-5-25,59,55,49,55,48,43,95,78,55,0.00,40.00,7,2,23,0.84
2013-5-26,66,57,51,62,55,50,96,91,75,0.00,40.00,11,2,24,0.23
2013-5-27,79,66,60,67,62,58,96,90,66,0.00,40.00,7,2,17,0.24
2013-5-28,69,66,64,66,65,62,95,94,91,0.00,40.00,8,3,27,0.14
2013-6-19,90,81,65,67,62,57,94,53,37,0.00,40.00,3,1,8,0.00
2013-6-20,91,73,61,70,64,60,95,76,45,0.00,40.00,6,2,14,0.00
2013-6-22,95,87,76,75,73,69,83,64,50,0.00,40.00,11,4,18,0.00
2013-6-23,75,72,69,69,68,67,94,87,81,0.00,40.00,4,2,14,0.00
2013-6-24,87,74,67,74,69,65,96,87,64,0.00,40.00,5,1,16,0.07
2013-6-25,90,77,67,77,72,66,95,85,55,0.00,40.00,12,2,18,0.04
2013-6-26,89,78,69,78,73,67,95,84,65,0.00,40.00,7,2,12,0.00
2013-6-27,92,78,67,73,68,64,95,73,44,0.00,40.00,7,2,16,0.00
2013-6-28,86,76,65,69,58,52,94,59,31,0.00,40.00,14,6,26,0.00
2013-6-29,75,68,63,67,63,58,95,85,62,0.00,40.00,9,4,25,2.88
2013-6-30,80,69,62,62,60,57,95,75,46,0.00,40.00,14,6,22,0.00
2013-7-1,83,70,59,59,54,50,92,62,36,0.00,40.00,11,4,21,0.00
2013-7-2,84,68,55,61,56,50,95,69,35,0.00,40.00,8,2,16,0.00
2013-7-3,86,69,58,62,58,55,95,72,38,0.00,40.00,2,0,6,0.00
2013-7-4,90,73,58,64,58,54,95,66,35,0.00,40.00,6,1,15,0.00
2013-7-5,90,75,61,69,63,59,95,69,41,0.00,40.00,4,1,13,0.00
2013-7-6,94,73,63,69,65,62,95,80,41,0.00,40.00,4,1,12,0.00
2013-7-7,93,79,66,72,68,64,93,70,48,0.00,40.00,6,2,13,0.00
2013-7-8,87,76,71,77,70,-100,95,85,61,0.00,40.00,9,3,18,0.66
2013-7-9,96,82,74,79,75,72,94,82,55,0.00,40.00,6,2,14,0.00
2013-7-10,86,77,63,77,62,-100,94,66,42,0.00,40.00,11,5,18,0.00
2013-7-11,89,74,59,66,59,56,95,66,34,0.00,40.00,3,0,9,0.00
2013-7-12,90,72,57,64,58,53,95,68,32,0.00,40.00,5,1,12,0.00
2013-7-13,88,71,56,68,62,55,95,76,45,0.00,40.00,2,0,9,0.00
2013-7-14,91,75,61,70,64,60,95,72,40,0.00,40.00,3,1,9,0.00
2013-7-15,95,79,68,74,70,66,94,78,46,0.00,40.00,4,1,11,0.00
2013-7-16,97,83,71,77,72,70,95,74,45,0.00,40.00,4,1,10,0.00
2013-7-17,99,83,71,77,72,68,94,73,39,0.00,40.00,3,1,7,0.00
2013-7-18,96,83,72,74,71,68,94,72,40,0.00,40.00,9,2,15,0.00
2013-7-19,97,85,73,73,69,66,91,63,38,0.00,40.00,8,3,19,0.00
2013-7-20,91,78,69,72,66,60,92,69,37,0.00,40.00,10,2,14,0.00
2013-7-21,86,73,66,73,69,65,95,88,61,0.00,40.00,6,1,14,0.27
2013-7-22,92,77,66,76,69,59,95,78,53,0.00,40.00,9,2,17,0.00
2013-7-23,78,70,63,65,62,57,94,76,53,0.00,40.00,9,3,17,0.00
2013-7-24,83,68,60,61,58,54,95,73,38,0.00,40.00,4,1,12,0.00
2013-7-25,87,70,56,66,60,54,95,74,42,0.00,40.00,6,1,12,0.00
2013-7-26,83,71,61,69,62,53,94,75,37,0.00,40.00,12,3,20,0.74
2013-7-27,71,62,51,57,49,43,93,67,40,0.00,40.00,12,6,21,0.00
2013-7-28,77,61,49,55,50,47,96,70,38,0.00,40.00,10,3,17,0.00
2013-7-29,84,65,50,62,55,49,95,74,38,0.00,40.00,5,1,9,0.00
2013-7-30,72,68,64,69,66,61,95,92,80,0.00,40.00,3,1,9,1.54
2013-7-31,84,72,67,66,65,62,94,78,49,0.00,40.00,9,3,12,0.00
2013-8-1,90,73,60,67,62,57,95,72,36,0.00,40.00,5,1,10,0.00
2013-8-2,89,75,66,72,65,61,94,73,45,0.00,40.00,7,2,14,0.00
2013-8-3,84,73,63,65,59,53,93,65,37,0.00,40.00,8,2,17,0.00
2013-8-4,86,70,56,65,58,53,95,69,35,0.00,40.00,4,0,7,0.00
2013-8-5,84,70,60,72,65,59,95,86,65,0.00,40.00,5,1,10,0.00
2013-8-6,94,76,68,74,70,66,95,83,50,0.00,40.00,7,1,12,0.00
2013-8-7,87,78,67,75,69,63,95,76,48,0.00,40.00,12,4,17,0.00
2013-8-8,85,71,60,67,63,59,95,78,46,0.00,40.00,7,1,14,0.00
2013-8-9,84,72,62,70,64,61,95,79,48,0.00,40.00,10,1,17,0.00
2013-8-10,83,70,59,63,57,52,95,69,36,0.00,40.00,9,2,13,0.00
2013-8-11,89,73,58,66,60,57,95,70,40,0.00,40.00,8,2,14,0.00
2013-8-12,85,72,63,69,64,57,94,78,46,0.00,40.00,9,2,14,0.00
2013-8-13,69,57,58,61,47,-100,95,86,60,0.00,40.00,4,1,11,0.00
2013-8-14,77,55,49,58,43,-100,95,78,34,0.00,40.00,2,0,3,0.00
2013-8-17,82,57,53,59,45,-100,95,77,38,0.00,40.00,2,0,7,0.00
2013-8-18,86,64,53,64,56,51,95,81,37,0.00,40.00,3,0,9,0.00
2013-8-19,88,56,59,66,32,-100,95,72,41,0.00,40.00,7,2,14,0.00
2013-8-20,89,68,63,67,55,-100,95,77,40,0.00,40.00,6,2,15,0.00
2013-8-21,92,75,66,69,66,64,94,78,40,0.00,40.00,6,2,15,0.00
2013-8-22,81,73,68,70,68,66,94,85,68,0.00,40.00,8,1,17,0.00
2013-8-23,93,80,65,70,67,64,95,68,41,0.00,40.00,2,1,7,0.00
2013-8-25,76,74,73,68,68,67,81,78,75,0.00,40.00,2,1,6,0.00
2013-8-26,94,70,66,69,66,64,95,86,41,0.00,40.00,4,1,11,0.00
2013-8-27,91,74,71,71,70,67,95,87,45,0.00,40.00,8,2,17,0.00
2013-8-28,93,84,76,73,70,68,88,66,43,0.00,40.00,4,2,9,0.00
2013-8-29,83,75,72,76,73,71,95,93,77,0.00,40.00,1,0,4,0.00
2013-8-30,101,78,74,75,74,62,94,88,28,0.00,40.00,4,1,9,0.00
2013-8-31,85,71,72,72,58,-100,93,75,59,0.00,40.00,7,1,12,0.00
2013-9-1,89,72,67,70,65,57,95,82,42,0.00,40.00,6,1,10,0.00
2013-9-2,81,67,60,61,56,48,93,72,33,0.00,40.00,8,4,15,0.00
2013-9-3,84,63,51,57,52,47,96,72,28,0.00,40.00,5,2,9,0.00
2013-9-4,93,74,51,64,55,50,95,59,28,0.00,40.00,5,1,7,0.00
2013-9-5,94,70,60,67,63,58,95,81,35,0.00,40.00,1,0,4,0.00
2013-9-6,92,68,63,66,62,58,95,84,32,0.00,40.00,3,0,12,0.00
2013-9-7,99,74,64,65,55,-100,89,64,32,0.00,40.00,9,3,16,0.00
2013-9-8,91,77,73,73,71,70,91,81,52,0.00,40.00,2,1,7,0.00
2013-9-9,103,75,71,72,69,59,95,86,24,0.00,40.00,7,2,19,0.00
2013-9-10,99,85,76,63,59,57,60,44,25,0.00,40.00,11,4,23,0.00
2013-9-11,90,76,73,72,67,63,94,74,48,0.00,40.00,7,2,12,0.23
2013-9-12,72,68,59,69,61,41,95,81,32,0.00,40.00,6,2,13,0.00
2013-9-13,77,65,51,50,44,37,89,52,25,0.00,40.00,9,3,12,0.00
2013-9-14,60,43,42,47,28,-100,96,74,59,0.00,40.00,2,0,6,0.00
2013-9-17,68,55,51,61,52,49,93,88,73,0.00,40.00,3,1,7,0.00
2013-9-18,76,68,63,66,63,61,94,84,72,0.00,40.00,3,2,12,0.00
2013-9-19,95,72,67,68,67,63,95,87,35,0.00,40.00,9,2,16,0.16
2013-9-20,69,64,53,66,53,45,95,69,42,0.00,40.00,9,4,18,0.00
2013-9-21,73,56,48,53,41,-100,94,66,33,0.00,40.00,9,3,16,0.00
2013-9-22,80,59,44,60,48,42,96,73,32,0.00,40.00,3,0,10,0.00
2013-9-23,80,62,47,54,50,46,95,70,34,0.00,40.00,5,1,16,0.00
2013-9-24,81,61,50,58,53,49,95,78,43,0.00,40.00,4,1,10,0.00
2013-9-25,83,63,54,59,55,52,93,77,41,0.00,40.00,4,1,6,0.00
2013-9-26,90,71,55,62,58,53,94,68,36,0.00,40.00,6,2,16,0.00
2013-9-27,87,68,59,62,59,54,94,77,36,0.00,40.00,6,2,16,0.00
2013-9-28,73,61,53,68,48,-100,96,72,61,0.00,40.00,4,2,13,0.00
2013-9-29,77,54,45,50,46,44,96,81,31,0.00,40.00,4,0,6,0.00
2013-9-30,80,53,43,58,48,42,96,86,37,0.00,40.00,4,1,13,0.00
2013-10-5,74,69,56,69,62,39,93,78,50,0.00,40.00,6,3,12,0.01
2013-10-6,50,44,38,46,42,37,96,91,66,0.00,40.00,4,1,12,0.12
2013-10-7,72,54,47,48,45,39,96,77,30,0.00,40.00,4,2,11,0.00
2013-10-8,81,60,43,48,44,39,96,65,26,0.00,40.00,8,2,17,0.00
2013-10-9,81,57,45,56,47,39,96,74,25,0.00,40.00,4,1,11,0.00
2013-10-10,82,55,44,58,46,42,96,79,30,0.00,40.00,4,1,14,0.00
2013-10-11,81,60,52,57,52,50,95,79,35,0.00,40.00,9,2,20,0.00
2013-10-15,66,59,51,59,48,37,95,68,46,0.00,40.00,7,5,17,0.00
2013-10-16,52,50,49,43,41,39,77,70,62,0.00,40.00,7,2,17,0.00
2013-10-17,66,51,44,44,39,29,93,68,26,0.00,40.00,5,1,14,0.00
2013-10-18,52,46,45,43,39,33,92,76,49,0.00,40.00,7,2,13,0.00
2013-10-19,55,39,35,36,26,-100,95,71,36,0.00,40.00,10,2,17,0.00
2013-10-20,62,50,38,42,38,36,95,69,42,0.00,40.00,8,2,15,0.00
2013-10-21,56,43,31,39,31,23,91,63,34,0.00,40.00,11,4,19,0.00
2013-10-25,57,36,22,27,22,18,97,67,22,0.00,40.00,11,2,19,0.00
2013-10-26,54,42,34,34,20,-100,79,50,32,0.00,40.00,14,5,24,0.00
2013-10-27,62,40,23,36,25,21,97,63,23,0.00,40.00,9,2,14,0.00
2013-10-28,67,44,29,39,25,-100,96,64,24,0.00,40.00,4,1,12,0.00
2013-10-29,57,52,39,52,45,38,95,77,52,0.00,40.00,4,2,9,0.00
2013-10-30,59,56,53,58,54,52,96,96,95,0.00,40.00,5,2,12,3.19
2013-10-31,63,54,44,62,52,42,96,93,84,0.00,40.00,7,4,15,0.28
2013-11-1,54,47,41,44,40,36,93,79,54,0.00,40.00,6,2,14,0.00
2013-11-2,53,42,32,41,30,-100,93,69,34,0.00,40.00,11,4,20,0.00
2013-11-7,50,33,25,33,27,24,96,82,38,0.00,40.00,9,2,16,0.00
2013-11-8,51,39,24,33,27,23,96,68,37,0.00,40.00,9,4,24,0.00
2013-11-9,61,48,45,36,30,-100,65,53,33,0.00,40.00,11,6,20,0.00
2013-11-10,50,40,30,34,28,25,85,65,43,0.00,40.00,7,3,13,0.00
2013-11-11,51,38,23,38,28,16,96,69,56,0.00,40.00,15,7,27,0.08
2013-11-12,32,23,15,15,13,11,90,67,47,0.00,40.00,7,3,12,0.00
2013-11-13,47,33,15,18,14,9,95,51,21,0.00,40.00,14,6,24,0.00
2013-11-14,55,40,33,27,21,17,62,48,31,0.00,40.00,14,8,21,0.00
2013-11-15,56,45,34,36,31,23,75,59,43,0.00,40.00,12,4,17,0.00
2013-11-16,64,53,42,57,45,-100,90,81,76,0.00,40.00,15,8,28,0.00
2013-11-17,62,54,46,60,47,37,96,78,62,0.00,40.00,11,6,24,0.00
2013-11-18,49,40,27,37,31,26,95,71,41,0.00,40.00,13,4,19,0.00
2013-11-19,52,37,23,29,25,22,96,66,35,0.00,40.00,9,3,16,0.00
2013-11-20,40,38,38,39,34,27,95,86,62,0.00,40.00,9,4,16,0.13
2013-11-21,44,40,36,41,38,34,96,92,84,0.00,40.00,11,4,16,0.00
2013-11-22,36,30,20,33,25,17,95,84,67,0.00,40.00,13,7,19,0.01
2013-11-23,22,18,13,17,5,-100,88,63,48,0.00,40.00,17,8,26,0.00
2013-11-24,30,17,7,12,6,2,89,66,31,0.00,40.00,9,3,14,0.00
2013-11-25,37,32,25,22,19,12,81,57,50,0.00,40.00,11,4,18,0.00
2013-11-26,27,24,22,24,22,20,95,91,85,0.00,40.00,1,0,4,0.00
2013-12-3,53,40,31,45,39,31,97,93,74,0.00,40.00,6,1,11,0.00
2013-12-4,56,40,27,52,37,20,96,87,70,0.00,40.00,9,4,20,0.00
2013-12-5,26,19,16,18,9,6,74,62,52,0.00,40.00,12,7,21,0.00
2013-12-6,17,13,10,6,2,-1,64,59,47,0.00,40.00,11,7,16,0.00
2013-12-7,17,11,2,4,-4,-100,74,56,39,0.00,40.00,8,3,12,0.00
2013-12-8,23,20,14,20,14,4,93,78,61,0.00,40.00,5,2,14,0.07
2013-12-9,21,12,-3,18,5,-7,89,74,47,0.00,40.00,8,3,17,0.00
2013-12-10,23,20,18,9,6,3,67,55,41,0.00,40.00,0,0,1,0.00
2013-12-13,38,31,15,30,26,13,95,84,54,0.00,40.00,8,2,11,0.56
2013-12-14,28,24,15,27,17,-100,95,83,76,0.00,40.00,13,7,18,0.00
2013-12-15,21,17,13,13,9,6,82,72,56,0.00,40.00,7,3,12,0.04
2013-12-16,26,20,11,22,16,8,89,85,70,0.00,40.00,6,2,9,0.00
2013-12-17,40,30,17,30,16,10,90,60,35,0.00,40.00,11,4,24,0.03
2013-12-18,46,39,24,33,26,16,77,61,42,0.00,40.00,13,6,20,0.00
2013-12-19,48,39,31,37,35,30,96,86,61,0.00,40.00,6,2,8,0.00
2013-12-20,36,30,27,35,29,25,96,95,93,0.00,40.00,11,5,19,0.07
2013-12-21,30,27,26,28,21,-100,93,87,87,0.00,40.00,9,5,16,0.14
2013-12-22,29,24,18,28,20,11,96,83,74,0.00,40.00,9,6,17,0.71
2013-12-23,17,7,3,10,0,-4,75,73,68,0.00,40.00,7,5,13,0.00
2013-12-24,-10,-12,-17,-15,-17,-21,80,80,80,0.00,40.00,1,1,2,0.00
2013-12-26,42,38,33,26,26,25,75,61,52,0.00,40.00,7,4,12,0.00
2013-12-27,46,38,29,32,29,26,93,71,47,0.00,40.00,7,4,12,0.00
2013-12-28,52,40,32,32,27,-100,95,66,42,0.00,40.00,9,4,16,0.00
2013-12-29,38,16,4,32,10,-7,90,74,58,0.00,40.00,13,8,27,0.00
2013-12-30,4,2,1,-7,-8,-9,62,61,59,0.00,40.00,9,7,12,0.00